Hartland Township, Michigan
Current Conditions -  °F | °C
As of 12:35 AM on Thursday 27 Nov 2014 (Local Time) from KOZW Reporting Station
Overcast Overcast  
Wind Chill: 21°   Ceiling: 4200
Heat Index: 28°   Visibility: 10mi
Dew Point: 25°   Wind: 7mph
Humidity: 87%   Direction: 320°NW
Pressure: 30.1"   Gusts: NA
Location:  42.5294°N, 83.7802°W
Report Text: KOZW 270535Z AUTO 32006KT 10SM SCT011 OVC042 M02/M04 A3010 RMK AO2 T10211040
Loading
Personal Weather Stations






























Interactive Weather Map New forecast layout! Learn more

10-Day Weather Forecast

Advertisements
Track Severe Weather on mobile